sensor_id;sensor_type;location;lat;lon;timestamp;P1;durP1;ratioP1;P2;durP2;ratioP2
18046;SDS011;9148;51.454;13.862;2023-07-02T00:01:46;0.93;;;0.82;;
18046;SDS011;9148;51.454;13.862;2023-07-02T00:04:12;0.70;;;0.60;;
18046;SDS011;9148;51.454;13.862;2023-07-02T00:06:42;0.63;;;0.60;;
18046;SDS011;9148;51.454;13.862;2023-07-02T00:09:08;0.80;;;0.80;;
18046;SDS011;9148;51.454;13.862;2023-07-02T00:11:36;1.23;;;0.80;;
18046;SDS011;9148;51.454;13.862;2023-07-02T00:14:03;1.05;;;0.95;;
18046;SDS011;9148;51.454;13.862;2023-07-02T00:16:30;1.52;;;0.80;;
18046;SDS011;9148;51.454;13.862;2023-07-02T00:18:56;4.65;;;1.20;;
18046;SDS011;9148;51.454;13.862;2023-07-02T00:21:22;1.40;;;1.10;;
18046;SDS011;9148;51.454;13.862;2023-07-02T00:23:50;0.88;;;0.80;;
18046;SDS011;9148;51.454;13.862;2023-07-02T00:26:16;1.52;;;1.20;;
18046;SDS011;9148;51.454;13.862;2023-07-02T00:28:42;0.85;;;0.73;;
18046;SDS011;9148;51.454;13.862;2023-07-02T00:31:07;1.25;;;0.90;;
18046;SDS011;9148;51.454;13.862;2023-07-02T00:33:33;1.70;;;0.95;;
18046;SDS011;9148;51.454;13.862;2023-07-02T00:35:59;3.78;;;1.02;;
18046;SDS011;9148;51.454;13.862;2023-07-02T00:38:25;0.80;;;0.80;;
18046;SDS011;9148;51.454;13.862;2023-07-02T00:40:51;1.58;;;0.60;;
18046;SDS011;9148;51.454;13.862;2023-07-02T00:43:17;3.58;;;0.98;;
18046;SDS011;9148;51.454;13.862;2023-07-02T00:45:42;2.10;;;1.38;;
18046;SDS011;9148;51.454;13.862;2023-07-02T00:48:10;0.90;;;0.90;;
18046;SDS011;9148;51.454;13.862;2023-07-02T00:50:36;0.80;;;0.80;;
18046;SDS011;9148;51.454;13.862;2023-07-02T00:53:02;0.65;;;0.65;;
18046;SDS011;9148;51.454;13.862;2023-07-02T00:55:28;1.38;;;0.70;;
18046;SDS011;9148;51.454;13.862;2023-07-02T00:57:53;1.02;;;0.93;;
18046;SDS011;9148;51.454;13.862;2023-07-02T01:00:21;1.65;;;1.27;;
18046;SDS011;9148;51.454;13.862;2023-07-02T01:02:54;1.42;;;0.60;;
18046;SDS011;9148;51.454;13.862;2023-07-02T01:05:27;1.25;;;0.90;;
18046;SDS011;9148;51.454;13.862;2023-07-02T01:08:00;0.98;;;0.82;;
18046;SDS011;9148;51.454;13.862;2023-07-02T01:10:28;1.42;;;1.20;;
18046;SDS011;9148;51.454;13.862;2023-07-02T01:12:55;0.70;;;0.70;;
18046;SDS011;9148;51.454;13.862;2023-07-02T01:15:26;1.17;;;0.80;;
18046;SDS011;9148;51.454;13.862;2023-07-02T01:17:52;0.85;;;0.70;;
18046;SDS011;9148;51.454;13.862;2023-07-02T01:20:19;2.10;;;1.00;;
18046;SDS011;9148;51.454;13.862;2023-07-02T01:22:45;1.27;;;1.17;;
18046;SDS011;9148;51.454;13.862;2023-07-02T01:25:16;0.63;;;0.63;;
18046;SDS011;9148;51.454;13.862;2023-07-02T01:27:42;1.83;;;0.90;;
18046;SDS011;9148;51.454;13.862;2023-07-02T01:30:08;1.35;;;1.13;;
18046;SDS011;9148;51.454;13.862;2023-07-02T01:32:35;1.25;;;0.70;;
18046;SDS011;9148;51.454;13.862;2023-07-02T01:35:02;1.27;;;1.00;;
18046;SDS011;9148;51.454;13.862;2023-07-02T01:37:34;1.45;;;0.77;;
18046;SDS011;9148;51.454;13.862;2023-07-02T01:40:05;1.40;;;0.98;;
18046;SDS011;9148;51.454;13.862;2023-07-02T01:42:32;1.23;;;0.85;;
18046;SDS011;9148;51.454;13.862;2023-07-02T01:44:58;0.65;;;0.65;;
18046;SDS011;9148;51.454;13.862;2023-07-02T01:47:24;2.00;;;0.90;;
18046;SDS011;9148;51.454;13.862;2023-07-02T01:49:49;1.25;;;0.73;;
18046;SDS011;9148;51.454;13.862;2023-07-02T01:52:15;0.70;;;0.70;;
18046;SDS011;9148;51.454;13.862;2023-07-02T01:54:41;0.73;;;0.73;;
18046;SDS011;9148;51.454;13.862;2023-07-02T01:57:07;1.08;;;0.90;;
18046;SDS011;9148;51.454;13.862;2023-07-02T01:59:33;0.90;;;0.73;;
18046;SDS011;9148;51.454;13.862;2023-07-02T02:01:59;0.88;;;0.88;;
18046;SDS011;9148;51.454;13.862;2023-07-02T02:04:25;0.82;;;0.70;;
18046;SDS011;9148;51.454;13.862;2023-07-02T02:06:51;1.63;;;0.85;;
18046;SDS011;9148;51.454;13.862;2023-07-02T02:09:17;1.00;;;0.90;;
18046;SDS011;9148;51.454;13.862;2023-07-02T02:11:44;1.65;;;0.65;;
18046;SDS011;9148;51.454;13.862;2023-07-02T02:14:15;0.43;;;0.43;;
18046;SDS011;9148;51.454;13.862;2023-07-02T02:16:41;0.60;;;0.60;;
18046;SDS011;9148;51.454;13.862;2023-07-02T02:19:10;1.27;;;1.05;;
18046;SDS011;9148;51.454;13.862;2023-07-02T02:21:36;5.32;;;0.63;;
18046;SDS011;9148;51.454;13.862;2023-07-02T02:24:02;0.93;;;0.70;;
18046;SDS011;9148;51.454;13.862;2023-07-02T02:26:29;1.60;;;0.80;;
18046;SDS011;9148;51.454;13.862;2023-07-02T02:28:54;1.48;;;0.93;;
18046;SDS011;9148;51.454;13.862;2023-07-02T02:31:20;1.35;;;0.63;;
18046;SDS011;9148;51.454;13.862;2023-07-02T02:33:46;0.85;;;0.80;;
18046;SDS011;9148;51.454;13.862;2023-07-02T02:36:11;0.75;;;0.75;;
18046;SDS011;9148;51.454;13.862;2023-07-02T02:38:37;0.80;;;0.80;;
18046;SDS011;9148;51.454;13.862;2023-07-02T02:41:03;0.60;;;0.60;;
18046;SDS011;9148;51.454;13.862;2023-07-02T02:43:29;1.33;;;1.05;;
18046;SDS011;9148;51.454;13.862;2023-07-02T02:45:55;1.23;;;0.80;;
18046;SDS011;9148;51.454;13.862;2023-07-02T02:48:20;3.47;;;0.45;;
18046;SDS011;9148;51.454;13.862;2023-07-02T02:50:48;1.75;;;0.50;;
18046;SDS011;9148;51.454;13.862;2023-07-02T02:53:13;0.80;;;0.40;;
18046;SDS011;9148;51.454;13.862;2023-07-02T02:55:39;2.63;;;1.00;;
18046;SDS011;9148;51.454;13.862;2023-07-02T02:58:05;0.70;;;0.70;;
18046;SDS011;9148;51.454;13.862;2023-07-02T03:00:30;2.28;;;1.02;;
18046;SDS011;9148;51.454;13.862;2023-07-02T03:02:56;1.00;;;0.90;;
18046;SDS011;9148;51.454;13.862;2023-07-02T03:05:22;1.48;;;1.05;;
18046;SDS011;9148;51.454;13.862;2023-07-02T03:07:48;0.75;;;0.75;;
18046;SDS011;9148;51.454;13.862;2023-07-02T03:10:15;1.45;;;0.95;;
18046;SDS011;9148;51.454;13.862;2023-07-02T03:12:40;1.40;;;1.05;;
18046;SDS011;9148;51.454;13.862;2023-07-02T03:15:06;3.22;;;1.08;;
18046;SDS011;9148;51.454;13.862;2023-07-02T03:17:33;0.52;;;0.52;;
18046;SDS011;9148;51.454;13.862;2023-07-02T03:19:58;1.05;;;0.95;;
18046;SDS011;9148;51.454;13.862;2023-07-02T03:22:24;1.77;;;1.23;;
18046;SDS011;9148;51.454;13.862;2023-07-02T03:24:50;1.13;;;0.68;;
18046;SDS011;9148;51.454;13.862;2023-07-02T03:27:15;0.52;;;0.47;;
18046;SDS011;9148;51.454;13.862;2023-07-02T03:29:41;1.70;;;1.00;;
18046;SDS011;9148;51.454;13.862;2023-07-02T03:35:00;0.82;;;0.82;;
18046;SDS011;9148;51.454;13.862;2023-07-02T03:37:26;1.25;;;0.90;;
18046;SDS011;9148;51.454;13.862;2023-07-02T03:39:52;0.90;;;0.90;;
18046;SDS011;9148;51.454;13.862;2023-07-02T03:42:17;3.72;;;1.38;;
18046;SDS011;9148;51.454;13.862;2023-07-02T03:44:43;2.35;;;1.15;;
18046;SDS011;9148;51.454;13.862;2023-07-02T03:47:08;0.47;;;0.47;;
18046;SDS011;9148;51.454;13.862;2023-07-02T03:49:34;1.80;;;1.13;;
18046;SDS011;9148;51.454;13.862;2023-07-02T03:52:00;3.63;;;1.02;;
18046;SDS011;9148;51.454;13.862;2023-07-02T03:54:25;1.35;;;1.25;;
18046;SDS011;9148;51.454;13.862;2023-07-02T03:56:51;1.08;;;0.80;;
18046;SDS011;9148;51.454;13.862;2023-07-02T03:59:17;1.13;;;0.90;;
18046;SDS011;9148;51.454;13.862;2023-07-02T04:01:44;0.70;;;0.70;;
18046;SDS011;9148;51.454;13.862;2023-07-02T04:04:09;2.15;;;1.00;;
18046;SDS011;9148;51.454;13.862;2023-07-02T04:06:36;0.95;;;0.88;;
18046;SDS011;9148;51.454;13.862;2023-07-02T04:09:02;1.00;;;0.88;;
18046;SDS011;9148;51.454;13.862;2023-07-02T04:11:29;2.25;;;1.38;;
18046;SDS011;9148;51.454;13.862;2023-07-02T04:13:54;1.20;;;1.10;;
18046;SDS011;9148;51.454;13.862;2023-07-02T04:16:20;1.17;;;1.00;;
18046;SDS011;9148;51.454;13.862;2023-07-02T04:18:46;0.68;;;0.68;;
18046;SDS011;9148;51.454;13.862;2023-07-02T04:21:11;1.40;;;1.30;;
18046;SDS011;9148;51.454;13.862;2023-07-02T04:23:37;2.35;;;1.13;;
18046;SDS011;9148;51.454;13.862;2023-07-02T04:26:06;3.33;;;1.10;;
18046;SDS011;9148;51.454;13.862;2023-07-02T04:28:31;1.30;;;1.20;;
18046;SDS011;9148;51.454;13.862;2023-07-02T04:30:57;0.65;;;0.65;;
18046;SDS011;9148;51.454;13.862;2023-07-02T04:33:23;1.52;;;1.15;;
18046;SDS011;9148;51.454;13.862;2023-07-02T04:35:48;0.65;;;0.65;;
18046;SDS011;9148;51.454;13.862;2023-07-02T04:38:14;1.00;;;0.93;;
18046;SDS011;9148;51.454;13.862;2023-07-02T04:40:41;1.42;;;0.73;;
18046;SDS011;9148;51.454;13.862;2023-07-02T04:43:09;1.08;;;0.98;;
18046;SDS011;9148;51.454;13.862;2023-07-02T04:45:35;1.08;;;0.98;;
18046;SDS011;9148;51.454;13.862;2023-07-02T04:48:02;1.48;;;1.23;;
18046;SDS011;9148;51.454;13.862;2023-07-02T04:50:28;1.33;;;0.80;;
18046;SDS011;9148;51.454;13.862;2023-07-02T04:52:54;1.25;;;1.00;;
18046;SDS011;9148;51.454;13.862;2023-07-02T04:55:20;1.20;;;0.90;;
18046;SDS011;9148;51.454;13.862;2023-07-02T04:57:46;2.15;;;0.95;;
18046;SDS011;9148;51.454;13.862;2023-07-02T05:00:12;0.80;;;0.80;;
18046;SDS011;9148;51.454;13.862;2023-07-02T05:02:38;0.85;;;0.50;;
18046;SDS011;9148;51.454;13.862;2023-07-02T05:05:04;1.38;;;1.20;;
18046;SDS011;9148;51.454;13.862;2023-07-02T05:07:30;1.17;;;0.75;;
18046;SDS011;9148;51.454;13.862;2023-07-02T05:09:55;1.15;;;1.02;;
18046;SDS011;9148;51.454;13.862;2023-07-02T05:12:22;0.73;;;0.73;;
18046;SDS011;9148;51.454;13.862;2023-07-02T05:14:48;1.48;;;1.10;;
18046;SDS011;9148;51.454;13.862;2023-07-02T05:17:14;1.55;;;1.30;;
18046;SDS011;9148;51.454;13.862;2023-07-02T05:19:41;1.27;;;1.17;;
18046;SDS011;9148;51.454;13.862;2023-07-02T05:22:08;1.17;;;0.77;;
18046;SDS011;9148;51.454;13.862;2023-07-02T05:24:34;2.00;;;1.10;;
18046;SDS011;9148;51.454;13.862;2023-07-02T05:26:59;1.58;;;1.13;;
18046;SDS011;9148;51.454;13.862;2023-07-02T05:29:25;0.85;;;0.80;;
18046;SDS011;9148;51.454;13.862;2023-07-02T05:31:51;1.13;;;1.05;;
18046;SDS011;9148;51.454;13.862;2023-07-02T05:34:16;1.05;;;0.88;;
18046;SDS011;9148;51.454;13.862;2023-07-02T05:36:42;1.75;;;1.02;;
18046;SDS011;9148;51.454;13.862;2023-07-02T05:39:08;2.63;;;1.55;;
18046;SDS011;9148;51.454;13.862;2023-07-02T05:41:33;0.98;;;0.70;;
18046;SDS011;9148;51.454;13.862;2023-07-02T05:43:59;0.82;;;0.82;;
18046;SDS011;9148;51.454;13.862;2023-07-02T05:46:25;1.50;;;1.00;;
18046;SDS011;9148;51.454;13.862;2023-07-02T05:48:51;11.68;;;0.93;;
18046;SDS011;9148;51.454;13.862;2023-07-02T05:51:23;1.27;;;0.85;;
18046;SDS011;9148;51.454;13.862;2023-07-02T05:53:49;1.23;;;1.13;;
18046;SDS011;9148;51.454;13.862;2023-07-02T05:56:15;3.63;;;1.00;;
18046;SDS011;9148;51.454;13.862;2023-07-02T05:58:42;2.90;;;1.00;;
18046;SDS011;9148;51.454;13.862;2023-07-02T06:01:08;0.82;;;0.80;;
18046;SDS011;9148;51.454;13.862;2023-07-02T06:03:33;1.65;;;1.10;;
18046;SDS011;9148;51.454;13.862;2023-07-02T06:05:59;1.38;;;0.85;;
18046;SDS011;9148;51.454;13.862;2023-07-02T06:08:25;1.08;;;0.63;;
18046;SDS011;9148;51.454;13.862;2023-07-02T06:10:54;1.25;;;0.70;;
18046;SDS011;9148;51.454;13.862;2023-07-02T06:13:19;1.88;;;0.90;;
18046;SDS011;9148;51.454;13.862;2023-07-02T06:15:45;1.88;;;0.98;;
18046;SDS011;9148;51.454;13.862;2023-07-02T06:18:12;0.80;;;0.80;;
18046;SDS011;9148;51.454;13.862;2023-07-02T06:20:38;1.38;;;1.02;;
18046;SDS011;9148;51.454;13.862;2023-07-02T06:23:03;1.38;;;1.10;;
18046;SDS011;9148;51.454;13.862;2023-07-02T06:25:29;1.45;;;0.80;;
18046;SDS011;9148;51.454;13.862;2023-07-02T06:27:55;0.80;;;0.80;;
18046;SDS011;9148;51.454;13.862;2023-07-02T06:30:23;0.73;;;0.70;;
18046;SDS011;9148;51.454;13.862;2023-07-02T06:32:51;1.60;;;0.98;;
18046;SDS011;9148;51.454;13.862;2023-07-02T06:35:19;0.52;;;0.52;;
18046;SDS011;9148;51.454;13.862;2023-07-02T06:37:45;0.88;;;0.70;;
18046;SDS011;9148;51.454;13.862;2023-07-02T06:40:11;1.15;;;0.95;;
18046;SDS011;9148;51.454;13.862;2023-07-02T06:42:37;1.55;;;0.95;;
18046;SDS011;9148;51.454;13.862;2023-07-02T06:45:03;1.05;;;0.93;;
18046;SDS011;9148;51.454;13.862;2023-07-02T06:47:29;0.70;;;0.68;;
18046;SDS011;9148;51.454;13.862;2023-07-02T06:49:55;0.60;;;0.60;;
18046;SDS011;9148;51.454;13.862;2023-07-02T06:52:21;1.40;;;1.00;;
18046;SDS011;9148;51.454;13.862;2023-07-02T06:54:47;0.85;;;0.73;;
18046;SDS011;9148;51.454;13.862;2023-07-02T06:57:13;0.40;;;0.40;;
18046;SDS011;9148;51.454;13.862;2023-07-02T06:59:39;1.10;;;0.80;;
18046;SDS011;9148;51.454;13.862;2023-07-02T07:02:04;1.00;;;0.60;;
18046;SDS011;9148;51.454;13.862;2023-07-02T07:04:31;0.77;;;0.77;;
18046;SDS011;9148;51.454;13.862;2023-07-02T07:06:56;1.35;;;1.08;;
18046;SDS011;9148;51.454;13.862;2023-07-02T07:09:22;1.25;;;0.70;;
18046;SDS011;9148;51.454;13.862;2023-07-02T07:11:48;0.55;;;0.55;;
18046;SDS011;9148;51.454;13.862;2023-07-02T07:14:14;1.40;;;1.05;;
18046;SDS011;9148;51.454;13.862;2023-07-02T07:16:39;0.80;;;0.68;;
18046;SDS011;9148;51.454;13.862;2023-07-02T07:19:05;0.50;;;0.50;;
18046;SDS011;9148;51.454;13.862;2023-07-02T07:21:32;1.17;;;1.08;;
18046;SDS011;9148;51.454;13.862;2023-07-02T07:23:59;5.57;;;0.80;;
18046;SDS011;9148;51.454;13.862;2023-07-02T07:26:25;0.82;;;0.82;;
18046;SDS011;9148;51.454;13.862;2023-07-02T07:28:50;1.15;;;0.85;;
18046;SDS011;9148;51.454;13.862;2023-07-02T07:31:16;0.75;;;0.75;;
18046;SDS011;9148;51.454;13.862;2023-07-02T07:33:41;1.00;;;0.75;;
18046;SDS011;9148;51.454;13.862;2023-07-02T07:36:07;0.85;;;0.85;;
18046;SDS011;9148;51.454;13.862;2023-07-02T07:38:33;1.10;;;0.90;;
18046;SDS011;9148;51.454;13.862;2023-07-02T07:40:58;2.10;;;1.02;;
18046;SDS011;9148;51.454;13.862;2023-07-02T07:43:24;1.08;;;1.02;;
18046;SDS011;9148;51.454;13.862;2023-07-02T07:45:50;2.55;;;0.95;;
18046;SDS011;9148;51.454;13.862;2023-07-02T07:48:15;1.15;;;0.57;;
18046;SDS011;9148;51.454;13.862;2023-07-02T07:50:41;0.77;;;0.60;;
18046;SDS011;9148;51.454;13.862;2023-07-02T07:53:07;0.40;;;0.40;;
18046;SDS011;9148;51.454;13.862;2023-07-02T07:55:32;0.95;;;0.52;;
18046;SDS011;9148;51.454;13.862;2023-07-02T07:57:58;0.40;;;0.35;;
18046;SDS011;9148;51.454;13.862;2023-07-02T08:00:23;0.82;;;0.80;;
18046;SDS011;9148;51.454;13.862;2023-07-02T08:02:50;0.43;;;0.43;;
18046;SDS011;9148;51.454;13.862;2023-07-02T08:05:20;0.98;;;0.88;;
18046;SDS011;9148;51.454;13.862;2023-07-02T08:07:47;1.30;;;0.73;;
18046;SDS011;9148;51.454;13.862;2023-07-02T08:10:12;2.50;;;0.80;;
18046;SDS011;9148;51.454;13.862;2023-07-02T08:12:38;0.60;;;0.60;;
18046;SDS011;9148;51.454;13.862;2023-07-02T08:15:04;1.85;;;0.50;;
18046;SDS011;9148;51.454;13.862;2023-07-02T08:17:30;0.82;;;0.70;;
18046;SDS011;9148;51.454;13.862;2023-07-02T08:19:56;0.52;;;0.52;;
18046;SDS011;9148;51.454;13.862;2023-07-02T08:22:22;0.47;;;0.47;;
18046;SDS011;9148;51.454;13.862;2023-07-02T08:24:48;0.63;;;0.63;;
18046;SDS011;9148;51.454;13.862;2023-07-02T08:27:14;0.35;;;0.35;;
18046;SDS011;9148;51.454;13.862;2023-07-02T08:29:44;1.05;;;0.70;;
18046;SDS011;9148;51.454;13.862;2023-07-02T08:32:11;1.35;;;0.77;;
18046;SDS011;9148;51.454;13.862;2023-07-02T08:34:37;1.58;;;0.93;;
18046;SDS011;9148;51.454;13.862;2023-07-02T08:37:02;2.30;;;1.08;;
18046;SDS011;9148;51.454;13.862;2023-07-02T08:39:28;1.25;;;0.80;;
18046;SDS011;9148;51.454;13.862;2023-07-02T08:41:54;2.33;;;0.55;;
18046;SDS011;9148;51.454;13.862;2023-07-02T08:44:20;0.75;;;0.75;;
18046;SDS011;9148;51.454;13.862;2023-07-02T08:46:47;0.73;;;0.73;;
18046;SDS011;9148;51.454;13.862;2023-07-02T08:49:18;0.85;;;0.85;;
18046;SDS011;9148;51.454;13.862;2023-07-02T08:51:47;0.75;;;0.60;;
18046;SDS011;9148;51.454;13.862;2023-07-02T08:54:13;0.77;;;0.63;;
18046;SDS011;9148;51.454;13.862;2023-07-02T08:56:39;1.02;;;0.80;;
18046;SDS011;9148;51.454;13.862;2023-07-02T08:59:06;0.57;;;0.50;;
18046;SDS011;9148;51.454;13.862;2023-07-02T09:01:33;0.43;;;0.43;;
18046;SDS011;9148;51.454;13.862;2023-07-02T09:04:19;1.05;;;0.52;;
18046;SDS011;9148;51.454;13.862;2023-07-02T09:06:47;0.47;;;0.47;;
18046;SDS011;9148;51.454;13.862;2023-07-02T09:09:13;1.02;;;0.93;;
18046;SDS011;9148;51.454;13.862;2023-07-02T09:11:48;1.63;;;0.63;;
18046;SDS011;9148;51.454;13.862;2023-07-02T09:14:28;0.82;;;0.77;;
18046;SDS011;9148;51.454;13.862;2023-07-02T09:17:05;1.17;;;0.75;;
18046;SDS011;9148;51.454;13.862;2023-07-02T09:19:33;3.20;;;0.90;;
18046;SDS011;9148;51.454;13.862;2023-07-02T09:22:00;1.17;;;0.95;;
18046;SDS011;9148;51.454;13.862;2023-07-02T09:24:28;1.00;;;0.63;;
18046;SDS011;9148;51.454;13.862;2023-07-02T09:26:59;0.80;;;0.80;;
18046;SDS011;9148;51.454;13.862;2023-07-02T09:32:00;0.52;;;0.50;;
18046;SDS011;9148;51.454;13.862;2023-07-02T09:34:33;1.17;;;0.63;;
18046;SDS011;9148;51.454;13.862;2023-07-02T09:37:10;1.90;;;0.95;;
18046;SDS011;9148;51.454;13.862;2023-07-02T09:39:36;0.60;;;0.60;;
18046;SDS011;9148;51.454;13.862;2023-07-02T09:42:02;1.05;;;0.70;;
18046;SDS011;9148;51.454;13.862;2023-07-02T09:44:34;0.82;;;0.73;;
18046;SDS011;9148;51.454;13.862;2023-07-02T09:49:36;0.65;;;0.65;;
18046;SDS011;9148;51.454;13.862;2023-07-02T09:52:04;1.33;;;0.88;;
18046;SDS011;9148;51.454;13.862;2023-07-02T09:54:32;1.73;;;1.00;;
18046;SDS011;9148;51.454;13.862;2023-07-02T09:56:59;1.25;;;1.10;;
18046;SDS011;9148;51.454;13.862;2023-07-02T09:59:25;1.02;;;0.77;;
18046;SDS011;9148;51.454;13.862;2023-07-02T10:01:51;1.88;;;1.10;;
18046;SDS011;9148;51.454;13.862;2023-07-02T10:04:18;1.63;;;1.05;;
18046;SDS011;9148;51.454;13.862;2023-07-02T10:06:49;2.78;;;0.98;;
18046;SDS011;9148;51.454;13.862;2023-07-02T10:09:17;1.30;;;0.80;;
18046;SDS011;9148;51.454;13.862;2023-07-02T10:11:44;2.72;;;1.00;;
18046;SDS011;9148;51.454;13.862;2023-07-02T10:14:10;0.63;;;0.63;;
18046;SDS011;9148;51.454;13.862;2023-07-02T10:16:52;1.65;;;0.70;;
18046;SDS011;9148;51.454;13.862;2023-07-02T10:19:18;1.02;;;0.93;;
18046;SDS011;9148;51.454;13.862;2023-07-02T10:21:45;3.80;;;1.25;;
18046;SDS011;9148;51.454;13.862;2023-07-02T10:24:15;0.45;;;0.40;;
18046;SDS011;9148;51.454;13.862;2023-07-02T10:26:51;1.08;;;0.80;;
18046;SDS011;9148;51.454;13.862;2023-07-02T10:29:19;1.55;;;0.80;;
18046;SDS011;9148;51.454;13.862;2023-07-02T10:31:48;0.75;;;0.75;;
18046;SDS011;9148;51.454;13.862;2023-07-02T10:34:15;1.48;;;0.70;;
18046;SDS011;9148;51.454;13.862;2023-07-02T10:36:41;0.90;;;0.60;;
18046;SDS011;9148;51.454;13.862;2023-07-02T10:39:07;1.40;;;1.00;;
18046;SDS011;9148;51.454;13.862;2023-07-02T10:41:33;0.50;;;0.50;;
18046;SDS011;9148;51.454;13.862;2023-07-02T10:44:08;0.73;;;0.73;;
18046;SDS011;9148;51.454;13.862;2023-07-02T10:46:42;0.85;;;0.82;;
18046;SDS011;9148;51.454;13.862;2023-07-02T10:49:12;0.88;;;0.77;;
18046;SDS011;9148;51.454;13.862;2023-07-02T10:51:38;0.50;;;0.50;;
18046;SDS011;9148;51.454;13.862;2023-07-02T10:54:04;1.00;;;0.90;;
18046;SDS011;9148;51.454;13.862;2023-07-02T10:56:30;1.15;;;0.77;;
18046;SDS011;9148;51.454;13.862;2023-07-02T10:58:56;0.70;;;0.70;;
18046;SDS011;9148;51.454;13.862;2023-07-02T11:01:26;0.65;;;0.63;;
18046;SDS011;9148;51.454;13.862;2023-07-02T11:03:57;0.60;;;0.60;;
18046;SDS011;9148;51.454;13.862;2023-07-02T11:06:28;0.90;;;0.80;;
18046;SDS011;9148;51.454;13.862;2023-07-02T11:08:55;0.63;;;0.63;;
18046;SDS011;9148;51.454;13.862;2023-07-02T11:11:21;0.63;;;0.63;;
18046;SDS011;9148;51.454;13.862;2023-07-02T11:13:48;2.00;;;1.42;;
18046;SDS011;9148;51.454;13.862;2023-07-02T11:16:23;2.70;;;1.60;;
18046;SDS011;9148;51.454;13.862;2023-07-02T11:18:52;3.20;;;1.70;;
18046;SDS011;9148;51.454;13.862;2023-07-02T11:21:19;3.42;;;2.10;;
18046;SDS011;9148;51.454;13.862;2023-07-02T11:23:45;1.40;;;1.15;;
18046;SDS011;9148;51.454;13.862;2023-07-02T11:26:11;2.53;;;1.40;;
18046;SDS011;9148;51.454;13.862;2023-07-02T11:28:47;3.47;;;1.58;;
18046;SDS011;9148;51.454;13.862;2023-07-02T11:31:23;4.28;;;2.10;;
18046;SDS011;9148;51.454;13.862;2023-07-02T11:33:50;1.60;;;1.50;;
18046;SDS011;9148;51.454;13.862;2023-07-02T11:36:23;1.88;;;1.70;;
18046;SDS011;9148;51.454;13.862;2023-07-02T11:39:08;8.48;;;2.05;;
18046;SDS011;9148;51.454;13.862;2023-07-02T11:41:44;3.22;;;1.38;;
18046;SDS011;9148;51.454;13.862;2023-07-02T11:44:11;6.85;;;1.67;;
18046;SDS011;9148;51.454;13.862;2023-07-02T11:46:36;2.45;;;1.58;;
18046;SDS011;9148;51.454;13.862;2023-07-02T11:49:03;2.55;;;1.40;;
18046;SDS011;9148;51.454;13.862;2023-07-02T11:51:30;2.22;;;1.70;;
18046;SDS011;9148;51.454;13.862;2023-07-02T11:53:56;2.15;;;1.33;;
18046;SDS011;9148;51.454;13.862;2023-07-02T11:56:23;2.60;;;1.48;;
18046;SDS011;9148;51.454;13.862;2023-07-02T11:58:49;2.97;;;1.60;;
18046;SDS011;9148;51.454;13.862;2023-07-02T12:01:15;3.17;;;1.40;;
18046;SDS011;9148;51.454;13.862;2023-07-02T12:03:40;2.42;;;1.65;;
18046;SDS011;9148;51.454;13.862;2023-07-02T12:06:06;1.45;;;1.35;;
18046;SDS011;9148;51.454;13.862;2023-07-02T12:08:32;3.17;;;1.60;;
18046;SDS011;9148;51.454;13.862;2023-07-02T12:10:57;1.95;;;1.25;;
18046;SDS011;9148;51.454;13.862;2023-07-02T12:13:23;1.92;;;1.40;;
18046;SDS011;9148;51.454;13.862;2023-07-02T12:15:49;1.90;;;1.50;;
18046;SDS011;9148;51.454;13.862;2023-07-02T12:18:16;2.40;;;1.15;;
18046;SDS011;9148;51.454;13.862;2023-07-02T12:20:42;1.95;;;1.38;;
18046;SDS011;9148;51.454;13.862;2023-07-02T12:23:08;2.22;;;1.75;;
18046;SDS011;9148;51.454;13.862;2023-07-02T12:25:35;2.38;;;1.27;;
18046;SDS011;9148;51.454;13.862;2023-07-02T12:28:04;2.22;;;1.33;;
18046;SDS011;9148;51.454;13.862;2023-07-02T12:30:30;1.85;;;1.75;;
18046;SDS011;9148;51.454;13.862;2023-07-02T12:32:56;2.88;;;1.45;;
18046;SDS011;9148;51.454;13.862;2023-07-02T12:35:22;3.55;;;1.60;;
18046;SDS011;9148;51.454;13.862;2023-07-02T12:37:49;5.43;;;2.53;;
18046;SDS011;9148;51.454;13.862;2023-07-02T12:40:17;3.20;;;1.55;;
18046;SDS011;9148;51.454;13.862;2023-07-02T12:42:45;3.35;;;1.48;;
18046;SDS011;9148;51.454;13.862;2023-07-02T12:45:12;1.70;;;1.60;;
18046;SDS011;9148;51.454;13.862;2023-07-02T12:47:39;1.90;;;1.15;;
18046;SDS011;9148;51.454;13.862;2023-07-02T12:50:06;1.67;;;1.58;;
18046;SDS011;9148;51.454;13.862;2023-07-02T12:52:33;2.95;;;1.80;;
18046;SDS011;9148;51.454;13.862;2023-07-02T12:54:59;2.15;;;1.33;;
18046;SDS011;9148;51.454;13.862;2023-07-02T12:57:26;2.97;;;1.45;;
18046;SDS011;9148;51.454;13.862;2023-07-02T12:59:52;1.98;;;1.58;;
18046;SDS011;9148;51.454;13.862;2023-07-02T13:02:19;1.73;;;1.38;;
18046;SDS011;9148;51.454;13.862;2023-07-02T13:04:45;4.90;;;1.83;;
18046;SDS011;9148;51.454;13.862;2023-07-02T13:07:11;2.08;;;1.27;;
18046;SDS011;9148;51.454;13.862;2023-07-02T13:09:37;2.28;;;1.45;;
18046;SDS011;9148;51.454;13.862;2023-07-02T13:12:02;2.05;;;1.85;;
18046;SDS011;9148;51.454;13.862;2023-07-02T13:14:28;1.75;;;1.65;;
18046;SDS011;9148;51.454;13.862;2023-07-02T13:16:54;1.65;;;1.20;;
18046;SDS011;9148;51.454;13.862;2023-07-02T13:19:20;2.63;;;1.50;;
18046;SDS011;9148;51.454;13.862;2023-07-02T13:21:45;1.77;;;1.65;;
18046;SDS011;9148;51.454;13.862;2023-07-02T13:24:11;1.60;;;1.30;;
18046;SDS011;9148;51.454;13.862;2023-07-02T13:26:37;2.08;;;1.88;;
18046;SDS011;9148;51.454;13.862;2023-07-02T13:29:03;3.78;;;1.67;;
18046;SDS011;9148;51.454;13.862;2023-07-02T13:31:29;2.50;;;1.80;;
18046;SDS011;9148;51.454;13.862;2023-07-02T13:33:54;2.75;;;1.45;;
18046;SDS011;9148;51.454;13.862;2023-07-02T13:36:20;1.30;;;1.15;;
18046;SDS011;9148;51.454;13.862;2023-07-02T13:38:46;2.80;;;2.15;;
18046;SDS011;9148;51.454;13.862;2023-07-02T13:41:11;2.67;;;1.70;;
18046;SDS011;9148;51.454;13.862;2023-07-02T13:43:37;2.55;;;2.05;;
18046;SDS011;9148;51.454;13.862;2023-07-02T13:46:03;3.00;;;2.42;;
18046;SDS011;9148;51.454;13.862;2023-07-02T13:48:29;2.33;;;1.70;;
18046;SDS011;9148;51.454;13.862;2023-07-02T13:50:55;2.03;;;1.83;;
18046;SDS011;9148;51.454;13.862;2023-07-02T13:53:20;3.92;;;2.55;;
18046;SDS011;9148;51.454;13.862;2023-07-02T13:55:46;4.57;;;1.95;;
18046;SDS011;9148;51.454;13.862;2023-07-02T13:58:12;2.35;;;1.42;;
18046;SDS011;9148;51.454;13.862;2023-07-02T14:00:37;2.40;;;1.50;;
18046;SDS011;9148;51.454;13.862;2023-07-02T14:03:03;2.42;;;1.65;;
18046;SDS011;9148;51.454;13.862;2023-07-02T14:05:31;3.08;;;1.80;;
18046;SDS011;9148;51.454;13.862;2023-07-02T14:07:57;3.17;;;1.52;;
18046;SDS011;9148;51.454;13.862;2023-07-02T14:10:23;1.92;;;1.30;;
18046;SDS011;9148;51.454;13.862;2023-07-02T14:12:48;4.57;;;2.05;;
18046;SDS011;9148;51.454;13.862;2023-07-02T14:15:15;4.38;;;2.08;;
18046;SDS011;9148;51.454;13.862;2023-07-02T14:17:41;2.03;;;1.40;;
18046;SDS011;9148;51.454;13.862;2023-07-02T14:20:07;2.55;;;1.85;;
18046;SDS011;9148;51.454;13.862;2023-07-02T14:22:35;3.17;;;2.22;;
18046;SDS011;9148;51.454;13.862;2023-07-02T14:25:00;4.15;;;1.83;;
18046;SDS011;9148;51.454;13.862;2023-07-02T14:27:26;6.50;;;2.42;;
18046;SDS011;9148;51.454;13.862;2023-07-02T14:29:52;2.38;;;2.05;;
18046;SDS011;9148;51.454;13.862;2023-07-02T14:32:17;4.38;;;2.60;;
18046;SDS011;9148;51.454;13.862;2023-07-02T14:34:43;3.40;;;2.20;;
18046;SDS011;9148;51.454;13.862;2023-07-02T14:37:09;1.63;;;1.52;;
18046;SDS011;9148;51.454;13.862;2023-07-02T14:39:34;2.95;;;1.80;;
18046;SDS011;9148;51.454;13.862;2023-07-02T14:42:00;2.53;;;2.00;;
18046;SDS011;9148;51.454;13.862;2023-07-02T14:44:26;2.17;;;1.77;;
18046;SDS011;9148;51.454;13.862;2023-07-02T14:46:51;3.03;;;1.77;;
18046;SDS011;9148;51.454;13.862;2023-07-02T14:49:23;2.20;;;1.77;;
18046;SDS011;9148;51.454;13.862;2023-07-02T14:51:50;2.67;;;2.28;;
18046;SDS011;9148;51.454;13.862;2023-07-02T14:54:16;4.43;;;2.50;;